sensor_id;sensor_type;location;lat;lon;timestamp;P1;durP1;ratioP1;P2;durP2;ratioP2
7587;SDS011;3835;48.850;8.938;2023-07-13T00:00:08;24.03;;;22.97;;
7587;SDS011;3835;48.850;8.938;2023-07-13T00:02:35;18.93;;;17.83;;
7587;SDS011;3835;48.850;8.938;2023-07-13T00:05:02;17.47;;;16.47;;
7587;SDS011;3835;48.850;8.938;2023-07-13T00:07:31;21.40;;;20.43;;
7587;SDS011;3835;48.850;8.938;2023-07-13T00:09:58;18.17;;;17.17;;
7587;SDS011;3835;48.850;8.938;2023-07-13T00:12:26;16.57;;;15.63;;
7587;SDS011;3835;48.850;8.938;2023-07-13T00:14:55;17.87;;;16.97;;
7587;SDS011;3835;48.850;8.938;2023-07-13T00:17:23;22.13;;;21.13;;
7587;SDS011;3835;48.850;8.938;2023-07-13T00:19:50;18.97;;;18.17;;
7587;SDS011;3835;48.850;8.938;2023-07-13T00:22:17;18.40;;;17.50;;
7587;SDS011;3835;48.850;8.938;2023-07-13T00:24:45;20.50;;;19.13;;
7587;SDS011;3835;48.850;8.938;2023-07-13T00:27:12;18.10;;;17.27;;
7587;SDS011;3835;48.850;8.938;2023-07-13T00:29:42;16.07;;;15.17;;
7587;SDS011;3835;48.850;8.938;2023-07-13T00:32:10;17.67;;;16.53;;
7587;SDS011;3835;48.850;8.938;2023-07-13T00:34:37;15.00;;;14.20;;
7587;SDS011;3835;48.850;8.938;2023-07-13T00:37:04;14.00;;;13.17;;
7587;SDS011;3835;48.850;8.938;2023-07-13T00:39:32;14.93;;;13.77;;
7587;SDS011;3835;48.850;8.938;2023-07-13T00:42:01;15.50;;;14.80;;
7587;SDS011;3835;48.850;8.938;2023-07-13T00:44:29;17.03;;;16.13;;
7587;SDS011;3835;48.850;8.938;2023-07-13T00:46:56;16.23;;;15.37;;
7587;SDS011;3835;48.850;8.938;2023-07-13T00:49:24;23.87;;;22.70;;
7587;SDS011;3835;48.850;8.938;2023-07-13T00:51:53;25.40;;;24.10;;
7587;SDS011;3835;48.850;8.938;2023-07-13T00:54:22;29.17;;;27.63;;
7587;SDS011;3835;48.850;8.938;2023-07-13T00:56:54;26.30;;;24.97;;
7587;SDS011;3835;48.850;8.938;2023-07-13T00:59:25;21.33;;;20.13;;
7587;SDS011;3835;48.850;8.938;2023-07-13T01:01:52;22.03;;;20.70;;
7587;SDS011;3835;48.850;8.938;2023-07-13T01:04:20;19.30;;;18.20;;
7587;SDS011;3835;48.850;8.938;2023-07-13T01:06:49;16.27;;;15.30;;
7587;SDS011;3835;48.850;8.938;2023-07-13T01:09:16;18.43;;;17.47;;
7587;SDS011;3835;48.850;8.938;2023-07-13T01:11:43;16.67;;;15.87;;
7587;SDS011;3835;48.850;8.938;2023-07-13T01:14:11;15.83;;;15.03;;
7587;SDS011;3835;48.850;8.938;2023-07-13T01:16:39;20.63;;;19.57;;
7587;SDS011;3835;48.850;8.938;2023-07-13T01:19:12;19.97;;;18.87;;
7587;SDS011;3835;48.850;8.938;2023-07-13T01:21:51;14.60;;;13.80;;
7587;SDS011;3835;48.850;8.938;2023-07-13T01:24:18;15.53;;;14.73;;
7587;SDS011;3835;48.850;8.938;2023-07-13T01:26:45;15.77;;;14.23;;
7587;SDS011;3835;48.850;8.938;2023-07-13T01:29:12;14.40;;;13.70;;
7587;SDS011;3835;48.850;8.938;2023-07-13T01:31:38;15.87;;;14.87;;
7587;SDS011;3835;48.850;8.938;2023-07-13T01:34:05;14.83;;;13.83;;
7587;SDS011;3835;48.850;8.938;2023-07-13T01:36:33;17.77;;;16.97;;
7587;SDS011;3835;48.850;8.938;2023-07-13T01:39:02;17.20;;;16.20;;
7587;SDS011;3835;48.850;8.938;2023-07-13T01:41:29;25.97;;;24.77;;
7587;SDS011;3835;48.850;8.938;2023-07-13T01:43:56;19.20;;;18.20;;
7587;SDS011;3835;48.850;8.938;2023-07-13T01:46:22;13.77;;;13.07;;
7587;SDS011;3835;48.850;8.938;2023-07-13T01:48:49;12.77;;;12.00;;
7587;SDS011;3835;48.850;8.938;2023-07-13T01:51:17;15.80;;;15.10;;
7587;SDS011;3835;48.850;8.938;2023-07-13T01:53:45;16.97;;;16.20;;
7587;SDS011;3835;48.850;8.938;2023-07-13T01:56:13;18.30;;;17.47;;
7587;SDS011;3835;48.850;8.938;2023-07-13T01:58:40;18.63;;;17.63;;
7587;SDS011;3835;48.850;8.938;2023-07-13T02:01:06;16.67;;;15.87;;
7587;SDS011;3835;48.850;8.938;2023-07-13T02:03:33;24.17;;;23.07;;
7587;SDS011;3835;48.850;8.938;2023-07-13T02:06:00;32.17;;;30.60;;
7587;SDS011;3835;48.850;8.938;2023-07-13T02:08:28;26.40;;;25.27;;
7587;SDS011;3835;48.850;8.938;2023-07-13T02:10:54;24.67;;;23.57;;
7587;SDS011;3835;48.850;8.938;2023-07-13T02:13:23;16.83;;;15.93;;
7587;SDS011;3835;48.850;8.938;2023-07-13T02:15:49;17.57;;;16.70;;
7587;SDS011;3835;48.850;8.938;2023-07-13T02:18:16;14.00;;;13.40;;
7587;SDS011;3835;48.850;8.938;2023-07-13T02:20:44;13.33;;;12.57;;
7587;SDS011;3835;48.850;8.938;2023-07-13T02:23:11;13.40;;;12.60;;
7587;SDS011;3835;48.850;8.938;2023-07-13T02:25:38;16.40;;;15.40;;
7587;SDS011;3835;48.850;8.938;2023-07-13T02:28:04;19.97;;;18.80;;
7587;SDS011;3835;48.850;8.938;2023-07-13T02:30:33;29.97;;;28.57;;
7587;SDS011;3835;48.850;8.938;2023-07-13T02:33:00;29.60;;;28.20;;
7587;SDS011;3835;48.850;8.938;2023-07-13T02:35:27;32.10;;;30.60;;
7587;SDS011;3835;48.850;8.938;2023-07-13T02:37:54;20.80;;;19.87;;
7587;SDS011;3835;48.850;8.938;2023-07-13T02:40:21;22.17;;;21.03;;
7587;SDS011;3835;48.850;8.938;2023-07-13T02:42:47;23.57;;;22.47;;
7587;SDS011;3835;48.850;8.938;2023-07-13T02:45:14;14.07;;;13.37;;
7587;SDS011;3835;48.850;8.938;2023-07-13T02:47:42;16.83;;;15.77;;
7587;SDS011;3835;48.850;8.938;2023-07-13T02:50:09;18.07;;;16.97;;
7587;SDS011;3835;48.850;8.938;2023-07-13T02:52:36;13.23;;;12.53;;
7587;SDS011;3835;48.850;8.938;2023-07-13T02:55:03;15.23;;;14.53;;
7587;SDS011;3835;48.850;8.938;2023-07-13T02:57:30;15.70;;;14.80;;
7587;SDS011;3835;48.850;8.938;2023-07-13T02:59:58;15.87;;;14.90;;
7587;SDS011;3835;48.850;8.938;2023-07-13T03:02:24;16.33;;;15.37;;
7587;SDS011;3835;48.850;8.938;2023-07-13T03:04:54;16.10;;;15.27;;
7587;SDS011;3835;48.850;8.938;2023-07-13T03:07:21;15.47;;;14.57;;
7587;SDS011;3835;48.850;8.938;2023-07-13T03:09:48;16.00;;;15.00;;
7587;SDS011;3835;48.850;8.938;2023-07-13T03:12:14;20.73;;;19.63;;
7587;SDS011;3835;48.850;8.938;2023-07-13T03:14:41;17.07;;;16.27;;
7587;SDS011;3835;48.850;8.938;2023-07-13T03:17:08;15.57;;;14.77;;
7587;SDS011;3835;48.850;8.938;2023-07-13T03:19:35;19.23;;;18.33;;
7587;SDS011;3835;48.850;8.938;2023-07-13T03:22:03;19.30;;;18.40;;
7587;SDS011;3835;48.850;8.938;2023-07-13T03:24:32;26.13;;;24.73;;
7587;SDS011;3835;48.850;8.938;2023-07-13T03:27:00;21.70;;;20.60;;
7587;SDS011;3835;48.850;8.938;2023-07-13T03:29:28;15.90;;;15.10;;
7587;SDS011;3835;48.850;8.938;2023-07-13T03:31:54;15.80;;;14.90;;
7587;SDS011;3835;48.850;8.938;2023-07-13T03:34:21;14.83;;;13.93;;
7587;SDS011;3835;48.850;8.938;2023-07-13T03:36:48;15.90;;;15.07;;
7587;SDS011;3835;48.850;8.938;2023-07-13T03:39:16;15.50;;;14.70;;
7587;SDS011;3835;48.850;8.938;2023-07-13T03:41:43;16.80;;;15.87;;
7587;SDS011;3835;48.850;8.938;2023-07-13T03:44:09;16.83;;;15.93;;
7587;SDS011;3835;48.850;8.938;2023-07-13T03:46:37;14.10;;;13.37;;
7587;SDS011;3835;48.850;8.938;2023-07-13T03:49:04;14.53;;;13.77;;
7587;SDS011;3835;48.850;8.938;2023-07-13T03:51:31;16.07;;;14.97;;
7587;SDS011;3835;48.850;8.938;2023-07-13T03:53:58;17.40;;;16.53;;
7587;SDS011;3835;48.850;8.938;2023-07-13T03:56:26;16.20;;;15.20;;
7587;SDS011;3835;48.850;8.938;2023-07-13T03:58:53;18.13;;;17.23;;
7587;SDS011;3835;48.850;8.938;2023-07-13T04:01:20;23.87;;;22.63;;
7587;SDS011;3835;48.850;8.938;2023-07-13T04:03:48;21.47;;;20.23;;
7587;SDS011;3835;48.850;8.938;2023-07-13T04:06:16;17.30;;;16.30;;
7587;SDS011;3835;48.850;8.938;2023-07-13T04:08:46;16.00;;;15.07;;
7587;SDS011;3835;48.850;8.938;2023-07-13T04:11:15;15.87;;;14.97;;
7587;SDS011;3835;48.850;8.938;2023-07-13T04:13:43;18.60;;;17.50;;
7587;SDS011;3835;48.850;8.938;2023-07-13T04:16:10;20.27;;;18.97;;
7587;SDS011;3835;48.850;8.938;2023-07-13T04:18:37;18.90;;;17.90;;
7587;SDS011;3835;48.850;8.938;2023-07-13T04:21:03;15.60;;;14.70;;
7587;SDS011;3835;48.850;8.938;2023-07-13T04:23:30;23.13;;;21.93;;
7587;SDS011;3835;48.850;8.938;2023-07-13T04:25:57;16.30;;;15.50;;
7587;SDS011;3835;48.850;8.938;2023-07-13T04:28:25;18.03;;;16.90;;
7587;SDS011;3835;48.850;8.938;2023-07-13T04:30:54;18.63;;;17.43;;
7587;SDS011;3835;48.850;8.938;2023-07-13T04:33:21;19.57;;;18.57;;
7587;SDS011;3835;48.850;8.938;2023-07-13T04:35:48;17.67;;;16.80;;
7587;SDS011;3835;48.850;8.938;2023-07-13T04:38:19;15.47;;;14.57;;
7587;SDS011;3835;48.850;8.938;2023-07-13T04:40:46;16.57;;;15.77;;
7587;SDS011;3835;48.850;8.938;2023-07-13T04:43:14;14.83;;;13.90;;
7587;SDS011;3835;48.850;8.938;2023-07-13T04:45:41;15.13;;;14.23;;
7587;SDS011;3835;48.850;8.938;2023-07-13T04:48:09;19.37;;;18.17;;
7587;SDS011;3835;48.850;8.938;2023-07-13T04:50:36;15.40;;;14.50;;
7587;SDS011;3835;48.850;8.938;2023-07-13T04:53:03;17.33;;;16.53;;
7587;SDS011;3835;48.850;8.938;2023-07-13T04:55:31;17.10;;;16.20;;
7587;SDS011;3835;48.850;8.938;2023-07-13T04:57:58;20.13;;;18.97;;
7587;SDS011;3835;48.850;8.938;2023-07-13T05:00:25;20.20;;;19.23;;
7587;SDS011;3835;48.850;8.938;2023-07-13T05:02:53;15.27;;;14.57;;
7587;SDS011;3835;48.850;8.938;2023-07-13T05:05:22;24.13;;;22.93;;
7587;SDS011;3835;48.850;8.938;2023-07-13T05:07:49;17.03;;;16.20;;
7587;SDS011;3835;48.850;8.938;2023-07-13T05:10:16;18.30;;;17.40;;
7587;SDS011;3835;48.850;8.938;2023-07-13T05:12:43;19.40;;;18.37;;
7587;SDS011;3835;48.850;8.938;2023-07-13T05:15:10;17.10;;;16.27;;
7587;SDS011;3835;48.850;8.938;2023-07-13T05:17:37;13.87;;;13.07;;
7587;SDS011;3835;48.850;8.938;2023-07-13T05:20:05;16.40;;;15.50;;
7587;SDS011;3835;48.850;8.938;2023-07-13T05:22:34;16.07;;;15.30;;
7587;SDS011;3835;48.850;8.938;2023-07-13T05:25:01;17.27;;;16.17;;
7587;SDS011;3835;48.850;8.938;2023-07-13T05:27:28;24.53;;;23.43;;
7587;SDS011;3835;48.850;8.938;2023-07-13T05:29:54;22.00;;;20.73;;
7587;SDS011;3835;48.850;8.938;2023-07-13T05:32:21;18.87;;;17.97;;
7587;SDS011;3835;48.850;8.938;2023-07-13T05:34:48;30.87;;;29.43;;
7587;SDS011;3835;48.850;8.938;2023-07-13T05:37:15;18.63;;;17.53;;
7587;SDS011;3835;48.850;8.938;2023-07-13T05:39:43;14.50;;;13.67;;
7587;SDS011;3835;48.850;8.938;2023-07-13T05:42:10;18.80;;;17.90;;
7587;SDS011;3835;48.850;8.938;2023-07-13T05:44:36;18.93;;;17.90;;
7587;SDS011;3835;48.850;8.938;2023-07-13T05:47:03;25.97;;;24.63;;
7587;SDS011;3835;48.850;8.938;2023-07-13T05:49:31;26.83;;;25.40;;
7587;SDS011;3835;48.850;8.938;2023-07-13T05:51:57;19.80;;;18.90;;
7587;SDS011;3835;48.850;8.938;2023-07-13T05:54:24;15.10;;;14.40;;
7587;SDS011;3835;48.850;8.938;2023-07-13T05:56:52;14.47;;;13.70;;
7587;SDS011;3835;48.850;8.938;2023-07-13T05:59:19;14.13;;;13.33;;
7587;SDS011;3835;48.850;8.938;2023-07-13T06:01:46;16.57;;;15.33;;
7587;SDS011;3835;48.850;8.938;2023-07-13T06:04:13;15.67;;;14.77;;
7587;SDS011;3835;48.850;8.938;2023-07-13T06:06:39;17.13;;;16.13;;
7587;SDS011;3835;48.850;8.938;2023-07-13T06:09:06;14.10;;;13.07;;
7587;SDS011;3835;48.850;8.938;2023-07-13T06:11:33;14.60;;;13.90;;
7587;SDS011;3835;48.850;8.938;2023-07-13T06:14:01;16.27;;;15.37;;
7587;SDS011;3835;48.850;8.938;2023-07-13T06:16:28;18.00;;;17.00;;
7587;SDS011;3835;48.850;8.938;2023-07-13T06:18:55;13.80;;;12.83;;
7587;SDS011;3835;48.850;8.938;2023-07-13T06:21:22;13.73;;;13.03;;
7587;SDS011;3835;48.850;8.938;2023-07-13T06:23:50;14.90;;;14.10;;
7587;SDS011;3835;48.850;8.938;2023-07-13T06:26:17;13.83;;;12.87;;
7587;SDS011;3835;48.850;8.938;2023-07-13T06:28:45;14.97;;;14.10;;
7587;SDS011;3835;48.850;8.938;2023-07-13T06:31:13;13.93;;;13.13;;
7587;SDS011;3835;48.850;8.938;2023-07-13T06:33:41;20.37;;;18.97;;
7587;SDS011;3835;48.850;8.938;2023-07-13T06:36:07;14.97;;;14.07;;
7587;SDS011;3835;48.850;8.938;2023-07-13T06:38:35;16.70;;;15.77;;
7587;SDS011;3835;48.850;8.938;2023-07-13T06:41:02;18.20;;;16.63;;
7587;SDS011;3835;48.850;8.938;2023-07-13T06:43:29;17.43;;;16.17;;
7587;SDS011;3835;48.850;8.938;2023-07-13T06:45:57;15.87;;;15.07;;
7587;SDS011;3835;48.850;8.938;2023-07-13T06:48:25;17.20;;;16.20;;
7587;SDS011;3835;48.850;8.938;2023-07-13T06:50:52;15.53;;;14.73;;
7587;SDS011;3835;48.850;8.938;2023-07-13T06:53:18;14.37;;;13.57;;
7587;SDS011;3835;48.850;8.938;2023-07-13T06:55:46;13.80;;;13.03;;
7587;SDS011;3835;48.850;8.938;2023-07-13T06:58:14;15.77;;;14.97;;
7587;SDS011;3835;48.850;8.938;2023-07-13T07:00:42;13.67;;;12.83;;
7587;SDS011;3835;48.850;8.938;2023-07-13T07:03:09;14.40;;;13.50;;
7587;SDS011;3835;48.850;8.938;2023-07-13T07:05:37;15.13;;;14.27;;
7587;SDS011;3835;48.850;8.938;2023-07-13T07:08:04;14.33;;;13.53;;
7587;SDS011;3835;48.850;8.938;2023-07-13T07:10:31;15.83;;;14.67;;
7587;SDS011;3835;48.850;8.938;2023-07-13T07:12:58;14.03;;;13.23;;
7587;SDS011;3835;48.850;8.938;2023-07-13T07:15:25;14.20;;;13.43;;
7587;SDS011;3835;48.850;8.938;2023-07-13T07:17:51;13.63;;;12.63;;
7587;SDS011;3835;48.850;8.938;2023-07-13T07:20:18;13.33;;;12.53;;
7587;SDS011;3835;48.850;8.938;2023-07-13T07:22:46;13.50;;;12.70;;
7587;SDS011;3835;48.850;8.938;2023-07-13T07:25:13;13.93;;;13.07;;
7587;SDS011;3835;48.850;8.938;2023-07-13T07:27:40;13.77;;;12.97;;
7587;SDS011;3835;48.850;8.938;2023-07-13T07:30:07;14.10;;;13.30;;
7587;SDS011;3835;48.850;8.938;2023-07-13T07:32:34;15.33;;;14.30;;
7587;SDS011;3835;48.850;8.938;2023-07-13T07:35:01;17.53;;;16.33;;
7587;SDS011;3835;48.850;8.938;2023-07-13T07:37:28;14.00;;;13.33;;
7587;SDS011;3835;48.850;8.938;2023-07-13T07:39:56;14.70;;;13.97;;
7587;SDS011;3835;48.850;8.938;2023-07-13T07:42:24;17.40;;;16.40;;
7587;SDS011;3835;48.850;8.938;2023-07-13T07:44:51;15.07;;;14.27;;
7587;SDS011;3835;48.850;8.938;2023-07-13T07:47:17;13.80;;;13.10;;
7587;SDS011;3835;48.850;8.938;2023-07-13T07:49:44;13.90;;;13.10;;
7587;SDS011;3835;48.850;8.938;2023-07-13T07:52:11;13.90;;;13.20;;
7587;SDS011;3835;48.850;8.938;2023-07-13T07:54:37;18.37;;;17.40;;
7587;SDS011;3835;48.850;8.938;2023-07-13T07:57:06;13.50;;;12.90;;
7587;SDS011;3835;48.850;8.938;2023-07-13T07:59:33;13.90;;;13.27;;
7587;SDS011;3835;48.850;8.938;2023-07-13T08:02:00;17.10;;;16.30;;
7587;SDS011;3835;48.850;8.938;2023-07-13T08:04:27;14.07;;;13.37;;
7587;SDS011;3835;48.850;8.938;2023-07-13T08:06:54;14.63;;;13.93;;
7587;SDS011;3835;48.850;8.938;2023-07-13T08:09:22;16.57;;;15.47;;
7587;SDS011;3835;48.850;8.938;2023-07-13T08:11:49;17.90;;;17.00;;
7587;SDS011;3835;48.850;8.938;2023-07-13T08:14:18;15.73;;;14.83;;
7587;SDS011;3835;48.850;8.938;2023-07-13T08:16:45;16.53;;;15.73;;
7587;SDS011;3835;48.850;8.938;2023-07-13T08:19:12;15.20;;;14.20;;
7587;SDS011;3835;48.850;8.938;2023-07-13T08:21:38;15.03;;;14.33;;
7587;SDS011;3835;48.850;8.938;2023-07-13T08:24:07;12.27;;;11.47;;
7587;SDS011;3835;48.850;8.938;2023-07-13T08:26:34;15.27;;;14.17;;
7587;SDS011;3835;48.850;8.938;2023-07-13T08:29:00;14.20;;;13.50;;
7587;SDS011;3835;48.850;8.938;2023-07-13T08:31:29;13.37;;;12.57;;
7587;SDS011;3835;48.850;8.938;2023-07-13T08:33:56;14.40;;;13.70;;
7587;SDS011;3835;48.850;8.938;2023-07-13T08:36:23;14.10;;;13.40;;
7587;SDS011;3835;48.850;8.938;2023-07-13T08:38:51;13.00;;;12.30;;
7587;SDS011;3835;48.850;8.938;2023-07-13T08:41:18;15.53;;;14.80;;
7587;SDS011;3835;48.850;8.938;2023-07-13T08:43:49;14.90;;;14.10;;
7587;SDS011;3835;48.850;8.938;2023-07-13T08:46:20;12.43;;;11.63;;
7587;SDS011;3835;48.850;8.938;2023-07-13T08:48:53;14.50;;;13.70;;
7587;SDS011;3835;48.850;8.938;2023-07-13T08:51:31;13.53;;;12.97;;
7587;SDS011;3835;48.850;8.938;2023-07-13T08:54:05;15.57;;;14.77;;
7587;SDS011;3835;48.850;8.938;2023-07-13T08:56:38;13.77;;;12.97;;
7587;SDS011;3835;48.850;8.938;2023-07-13T08:59:06;14.47;;;13.67;;
7587;SDS011;3835;48.850;8.938;2023-07-13T09:01:44;14.60;;;13.80;;
7587;SDS011;3835;48.850;8.938;2023-07-13T09:04:29;13.00;;;12.37;;
7587;SDS011;3835;48.850;8.938;2023-07-13T09:07:04;14.50;;;13.50;;
7587;SDS011;3835;48.850;8.938;2023-07-13T09:09:41;12.77;;;11.70;;
7587;SDS011;3835;48.850;8.938;2023-07-13T09:12:17;22.33;;;21.33;;
7587;SDS011;3835;48.850;8.938;2023-07-13T09:14:50;15.93;;;15.13;;
7587;SDS011;3835;48.850;8.938;2023-07-13T09:17:20;14.67;;;13.97;;
7587;SDS011;3835;48.850;8.938;2023-07-13T09:19:54;13.67;;;13.03;;
7587;SDS011;3835;48.850;8.938;2023-07-13T09:22:24;13.97;;;13.00;;
7587;SDS011;3835;48.850;8.938;2023-07-13T09:24:55;12.83;;;12.17;;
7587;SDS011;3835;48.850;8.938;2023-07-13T09:27:29;12.10;;;11.60;;
7587;SDS011;3835;48.850;8.938;2023-07-13T09:30:02;13.37;;;12.50;;
7587;SDS011;3835;48.850;8.938;2023-07-13T09:32:46;13.87;;;13.27;;
7587;SDS011;3835;48.850;8.938;2023-07-13T09:35:19;16.33;;;15.53;;
7587;SDS011;3835;48.850;8.938;2023-07-13T09:37:48;14.33;;;13.40;;
7587;SDS011;3835;48.850;8.938;2023-07-13T09:40:17;15.23;;;14.40;;
7587;SDS011;3835;48.850;8.938;2023-07-13T09:42:54;14.47;;;13.67;;
7587;SDS011;3835;48.850;8.938;2023-07-13T09:45:26;13.57;;;12.97;;
7587;SDS011;3835;48.850;8.938;2023-07-13T09:47:58;14.67;;;13.87;;
7587;SDS011;3835;48.850;8.938;2023-07-13T09:50:27;12.43;;;11.60;;
7587;SDS011;3835;48.850;8.938;2023-07-13T09:52:54;14.70;;;13.73;;
7587;SDS011;3835;48.850;8.938;2023-07-13T09:55:24;13.53;;;12.87;;
7587;SDS011;3835;48.850;8.938;2023-07-13T09:57:53;14.60;;;13.97;;
7587;SDS011;3835;48.850;8.938;2023-07-13T10:00:21;14.00;;;13.27;;
7587;SDS011;3835;48.850;8.938;2023-07-13T10:02:57;14.23;;;13.63;;
7587;SDS011;3835;48.850;8.938;2023-07-13T10:05:27;13.07;;;12.37;;
7587;SDS011;3835;48.850;8.938;2023-07-13T10:07:53;14.57;;;13.93;;
7587;SDS011;3835;48.850;8.938;2023-07-13T10:10:22;13.53;;;12.80;;
7587;SDS011;3835;48.850;8.938;2023-07-13T10:12:49;14.07;;;13.03;;
7587;SDS011;3835;48.850;8.938;2023-07-13T10:15:18;14.03;;;13.07;;
7587;SDS011;3835;48.850;8.938;2023-07-13T10:17:47;14.93;;;13.73;;
7587;SDS011;3835;48.850;8.938;2023-07-13T10:20:15;13.53;;;12.73;;
7587;SDS011;3835;48.850;8.938;2023-07-13T10:22:44;13.80;;;12.90;;
7587;SDS011;3835;48.850;8.938;2023-07-13T10:25:18;15.30;;;14.63;;
7587;SDS011;3835;48.850;8.938;2023-07-13T10:27:47;15.43;;;14.60;;
7587;SDS011;3835;48.850;8.938;2023-07-13T10:30:19;15.17;;;14.27;;
7587;SDS011;3835;48.850;8.938;2023-07-13T10:32:50;17.23;;;16.23;;
7587;SDS011;3835;48.850;8.938;2023-07-13T10:35:19;14.67;;;13.97;;
7587;SDS011;3835;48.850;8.938;2023-07-13T10:37:49;13.00;;;12.17;;
7587;SDS011;3835;48.850;8.938;2023-07-13T10:40:21;15.73;;;14.93;;
7587;SDS011;3835;48.850;8.938;2023-07-13T10:42:52;14.50;;;13.50;;
7587;SDS011;3835;48.850;8.938;2023-07-13T10:45:22;17.43;;;16.67;;
7587;SDS011;3835;48.850;8.938;2023-07-13T10:47:50;17.50;;;16.80;;
7587;SDS011;3835;48.850;8.938;2023-07-13T10:50:21;18.67;;;17.67;;
7587;SDS011;3835;48.850;8.938;2023-07-13T10:52:52;15.30;;;14.50;;
7587;SDS011;3835;48.850;8.938;2023-07-13T10:55:36;16.87;;;15.87;;
7587;SDS011;3835;48.850;8.938;2023-07-13T10:58:11;14.97;;;14.07;;
7587;SDS011;3835;48.850;8.938;2023-07-13T11:00:44;13.53;;;12.80;;
7587;SDS011;3835;48.850;8.938;2023-07-13T11:03:15;14.80;;;13.83;;
7587;SDS011;3835;48.850;8.938;2023-07-13T11:05:47;16.27;;;15.47;;
7587;SDS011;3835;48.850;8.938;2023-07-13T11:08:18;15.37;;;14.60;;
7587;SDS011;3835;48.850;8.938;2023-07-13T11:10:51;15.07;;;14.37;;
7587;SDS011;3835;48.850;8.938;2023-07-13T11:13:36;15.37;;;14.47;;
7587;SDS011;3835;48.850;8.938;2023-07-13T11:16:26;13.60;;;12.80;;
7587;SDS011;3835;48.850;8.938;2023-07-13T11:22:09;14.03;;;13.23;;
7587;SDS011;3835;48.850;8.938;2023-07-13T11:28:06;12.33;;;11.80;;
7587;SDS011;3835;48.850;8.938;2023-07-13T11:30:43;12.97;;;12.37;;
7587;SDS011;3835;48.850;8.938;2023-07-13T11:33:17;15.57;;;14.57;;
7587;SDS011;3835;48.850;8.938;2023-07-13T11:35:48;15.30;;;14.60;;
7587;SDS011;3835;48.850;8.938;2023-07-13T11:38:27;13.67;;;13.03;;
7587;SDS011;3835;48.850;8.938;2023-07-13T11:40:58;16.20;;;15.40;;
7587;SDS011;3835;48.850;8.938;2023-07-13T11:43:30;15.87;;;15.17;;
7587;SDS011;3835;48.850;8.938;2023-07-13T11:45:58;12.90;;;12.10;;
7587;SDS011;3835;48.850;8.938;2023-07-13T11:48:37;13.60;;;12.67;;
7587;SDS011;3835;48.850;8.938;2023-07-13T11:51:05;14.80;;;14.00;;
7587;SDS011;3835;48.850;8.938;2023-07-13T11:53:40;14.20;;;13.40;;
7587;SDS011;3835;48.850;8.938;2023-07-13T11:56:14;13.70;;;13.10;;
7587;SDS011;3835;48.850;8.938;2023-07-13T11:58:43;13.63;;;12.93;;
7587;SDS011;3835;48.850;8.938;2023-07-13T12:01:15;11.90;;;11.40;;
7587;SDS011;3835;48.850;8.938;2023-07-13T12:03:46;16.77;;;15.87;;
7587;SDS011;3835;48.850;8.938;2023-07-13T12:06:21;14.17;;;13.43;;
7587;SDS011;3835;48.850;8.938;2023-07-13T12:08:55;15.87;;;15.17;;
7587;SDS011;3835;48.850;8.938;2023-07-13T12:11:23;13.47;;;12.67;;
7587;SDS011;3835;48.850;8.938;2023-07-13T12:13:51;13.83;;;13.13;;
7587;SDS011;3835;48.850;8.938;2023-07-13T12:16:22;16.43;;;15.60;;
7587;SDS011;3835;48.850;8.938;2023-07-13T12:18:55;16.23;;;15.23;;
7587;SDS011;3835;48.850;8.938;2023-07-13T12:21:24;16.43;;;15.57;;
7587;SDS011;3835;48.850;8.938;2023-07-13T12:23:56;13.17;;;12.47;;
7587;SDS011;3835;48.850;8.938;2023-07-13T12:26:22;13.33;;;12.63;;
7587;SDS011;3835;48.850;8.938;2023-07-13T12:28:52;13.57;;;12.87;;
7587;SDS011;3835;48.850;8.938;2023-07-13T12:31:26;17.23;;;16.43;;
7587;SDS011;3835;48.850;8.938;2023-07-13T12:33:58;15.07;;;14.27;;
7587;SDS011;3835;48.850;8.938;2023-07-13T12:36:26;15.37;;;14.37;;
7587;SDS011;3835;48.850;8.938;2023-07-13T12:38:57;14.33;;;13.63;;
7587;SDS011;3835;48.850;8.938;2023-07-13T12:41:28;13.43;;;12.83;;
7587;SDS011;3835;48.850;8.938;2023-07-13T12:43:57;14.43;;;13.53;;
7587;SDS011;3835;48.850;8.938;2023-07-13T12:46:25;15.43;;;14.70;;
7587;SDS011;3835;48.850;8.938;2023-07-13T12:48:54;14.97;;;13.83;;
7587;SDS011;3835;48.850;8.938;2023-07-13T12:51:24;14.70;;;13.73;;
7587;SDS011;3835;48.850;8.938;2023-07-13T12:53:55;15.33;;;14.53;;
7587;SDS011;3835;48.850;8.938;2023-07-13T12:56:25;15.60;;;14.40;;
7587;SDS011;3835;48.850;8.938;2023-07-13T12:58:56;19.87;;;18.97;;
7587;SDS011;3835;48.850;8.938;2023-07-13T13:01:27;18.47;;;17.57;;
7587;SDS011;3835;48.850;8.938;2023-07-13T13:03:55;16.13;;;15.10;;
7587;SDS011;3835;48.850;8.938;2023-07-13T13:06:24;14.03;;;13.33;;
7587;SDS011;3835;48.850;8.938;2023-07-13T13:08:52;13.93;;;13.10;;
7587;SDS011;3835;48.850;8.938;2023-07-13T13:11:22;15.70;;;14.87;;
7587;SDS011;3835;48.850;8.938;2023-07-13T13:13:51;12.33;;;11.63;;
7587;SDS011;3835;48.850;8.938;2023-07-13T13:16:21;13.87;;;13.00;;
7587;SDS011;3835;48.850;8.938;2023-07-13T13:18:49;16.30;;;15.40;;
7587;SDS011;3835;48.850;8.938;2023-07-13T13:21:17;14.97;;;14.27;;
7587;SDS011;3835;48.850;8.938;2023-07-13T13:23:44;13.53;;;12.83;;
7587;SDS011;3835;48.850;8.938;2023-07-13T13:26:12;14.77;;;14.10;;
7587;SDS011;3835;48.850;8.938;2023-07-13T13:28:40;15.13;;;14.43;;
7587;SDS011;3835;48.850;8.938;2023-07-13T13:31:09;12.50;;;11.90;;
7587;SDS011;3835;48.850;8.938;2023-07-13T13:33:39;19.10;;;18.30;;
7587;SDS011;3835;48.850;8.938;2023-07-13T13:36:12;11.83;;;11.23;;
7587;SDS011;3835;48.850;8.938;2023-07-13T13:38:41;13.17;;;12.57;;
7587;SDS011;3835;48.850;8.938;2023-07-13T13:41:09;12.73;;;11.90;;
7587;SDS011;3835;48.850;8.938;2023-07-13T13:43:38;13.90;;;13.10;;
7587;SDS011;3835;48.850;8.938;2023-07-13T13:46:10;13.33;;;12.60;;
7587;SDS011;3835;48.850;8.938;2023-07-13T13:48:42;14.13;;;13.43;;
7587;SDS011;3835;48.850;8.938;2023-07-13T13:51:13;14.17;;;13.40;;
7587;SDS011;3835;48.850;8.938;2023-07-13T13:53:42;20.07;;;19.17;;
7587;SDS011;3835;48.850;8.938;2023-07-13T13:56:08;12.77;;;11.97;;
7587;SDS011;3835;48.850;8.938;2023-07-13T13:58:35;18.87;;;17.90;;
7587;SDS011;3835;48.850;8.938;2023-07-13T14:01:02;12.70;;;12.00;;
7587;SDS011;3835;48.850;8.938;2023-07-13T14:03:33;16.60;;;15.70;;
7587;SDS011;3835;48.850;8.938;2023-07-13T14:06:01;13.77;;;12.90;;
7587;SDS011;3835;48.850;8.938;2023-07-13T14:08:28;14.83;;;14.10;;
7587;SDS011;3835;48.850;8.938;2023-07-13T14:10:56;13.43;;;12.60;;
7587;SDS011;3835;48.850;8.938;2023-07-13T14:13:24;11.50;;;10.97;;
7587;SDS011;3835;48.850;8.938;2023-07-13T14:15:54;12.03;;;11.27;;
7587;SDS011;3835;48.850;8.938;2023-07-13T14:18:21;14.63;;;14.03;;
7587;SDS011;3835;48.850;8.938;2023-07-13T14:20:49;14.67;;;13.87;;
7587;SDS011;3835;48.850;8.938;2023-07-13T14:23:18;13.90;;;13.07;;
7587;SDS011;3835;48.850;8.938;2023-07-13T14:25:45;14.87;;;14.07;;
7587;SDS011;3835;48.850;8.938;2023-07-13T14:28:20;13.87;;;13.23;;
7587;SDS011;3835;48.850;8.938;2023-07-13T14:30:49;12.67;;;11.97;;
7587;SDS011;3835;48.850;8.938;2023-07-13T14:33:17;16.90;;;16.00;;
7587;SDS011;3835;48.850;8.938;2023-07-13T14:35:44;15.43;;;14.40;;
7587;SDS011;3835;48.850;8.938;2023-07-13T14:38:11;13.03;;;12.37;;
7587;SDS011;3835;48.850;8.938;2023-07-13T14:40:42;12.87;;;12.20;;
7587;SDS011;3835;48.850;8.938;2023-07-13T14:43:10;13.30;;;12.63;;
7587;SDS011;3835;48.850;8.938;2023-07-13T14:45:38;13.30;;;12.67;;
7587;SDS011;3835;48.850;8.938;2023-07-13T14:48:12;12.70;;;11.90;;
7587;SDS011;3835;48.850;8.938;2023-07-13T14:50:41;14.13;;;13.37;;
7587;SDS011;3835;48.850;8.938;2023-07-13T14:53:09;16.60;;;15.70;;
7587;SDS011;3835;48.850;8.938;2023-07-13T14:55:36;12.47;;;11.87;;
7587;SDS011;3835;48.850;8.938;2023-07-13T14:58:05;12.07;;;11.47;;
7587;SDS011;3835;48.850;8.938;2023-07-13T15:00:32;14.60;;;13.90;;
7587;SDS011;3835;48.850;8.938;2023-07-13T15:02:59;14.33;;;13.43;;